createdAt,value
2023-02-23T00:00:21.235Z,8.80
2023-02-23T00:01:29.824Z,8.80
2023-02-23T00:02:31.459Z,8.77
2023-02-23T00:03:33.049Z,8.67
2023-02-23T00:04:35.752Z,8.56
2023-02-23T00:05:37.962Z,8.51
2023-02-23T00:06:39.600Z,8.51
2023-02-23T00:07:45.804Z,8.51
2023-02-23T00:08:52.181Z,8.52
2023-02-23T00:09:53.702Z,8.51
2023-02-23T00:10:58.676Z,8.52
2023-02-23T00:12:00.231Z,8.52
2023-02-23T00:13:01.819Z,8.52
2023-02-23T00:14:03.967Z,8.51
2023-02-23T00:15:07.574Z,8.51
2023-02-23T00:16:17.653Z,8.53
2023-02-23T00:17:19.233Z,8.54
2023-02-23T00:18:21.045Z,8.54
2023-02-23T00:19:24.902Z,8.55
2023-02-23T00:20:29.759Z,8.55
2023-02-23T00:21:34.680Z,8.53
2023-02-23T00:22:36.226Z,8.51
2023-02-23T00:23:38.765Z,8.48
2023-02-23T00:24:42.374Z,8.46
2023-02-23T00:25:46.292Z,8.43
2023-02-23T00:26:48.668Z,8.40
2023-02-23T00:27:51.770Z,8.33
2023-02-23T00:28:54.371Z,8.30
2023-02-23T00:29:56.452Z,8.32
2023-02-23T00:30:59.850Z,8.32
2023-02-23T00:32:01.595Z,8.27
2023-02-23T00:33:03.472Z,8.26
2023-02-23T00:34:06.017Z,8.24
2023-02-23T00:35:12.646Z,8.20
2023-02-23T00:36:15.894Z,8.15
2023-02-23T00:37:18.871Z,8.12
2023-02-23T00:38:20.406Z,8.16
2023-02-23T00:39:25.092Z,8.21
2023-02-23T00:40:26.699Z,8.23
2023-02-23T00:41:29.761Z,8.25
2023-02-23T00:42:32.343Z,8.23
2023-02-23T00:43:38.284Z,8.20
2023-02-23T00:44:40.662Z,8.16
2023-02-23T00:45:42.396Z,8.09
2023-02-23T00:46:45.417Z,8.04
2023-02-23T00:47:48.811Z,7.92
2023-02-23T00:48:51.361Z,7.90
2023-02-23T00:49:52.969Z,7.94
2023-02-23T00:51:02.407Z,7.95
2023-02-23T00:52:05.062Z,7.96
2023-02-23T00:53:06.623Z,7.98
2023-02-23T00:54:08.667Z,8.00
2023-02-23T00:55:12.727Z,8.00
2023-02-23T00:56:15.982Z,8.02
2023-02-23T00:57:17.525Z,8.02
2023-02-23T00:58:19.767Z,8.02
2023-02-23T00:59:21.405Z,8.02
2023-02-23T01:00:23.016Z,8.00
2023-02-23T01:01:25.558Z,7.98
2023-02-23T01:02:30.681Z,7.97
2023-02-23T01:03:32.293Z,7.89
2023-02-23T01:04:33.849Z,7.85
2023-02-23T01:05:35.587Z,7.84
2023-02-23T01:06:38.158Z,7.84
2023-02-23T01:07:40.788Z,7.78
2023-02-23T01:08:44.648Z,7.68
2023-02-23T01:09:46.287Z,7.69
2023-02-23T01:10:53.093Z,7.61
2023-02-23T01:11:57.066Z,7.54
2023-02-23T01:12:58.650Z,7.41
2023-02-23T01:14:01.290Z,7.33
2023-02-23T01:15:03.616Z,7.26
2023-02-23T01:16:11.422Z,7.18
2023-02-23T01:17:13.082Z,7.17
2023-02-23T01:18:16.990Z,7.25
2023-02-23T01:19:18.809Z,7.34
2023-02-23T01:20:20.566Z,7.38
2023-02-23T01:21:26.959Z,7.38
2023-02-23T01:22:28.498Z,7.34
2023-02-23T01:23:30.035Z,7.25
2023-02-23T01:24:31.619Z,7.25
2023-02-23T01:25:34.096Z,7.24
2023-02-23T01:26:39.020Z,7.17
2023-02-23T01:27:41.619Z,7.19
2023-02-23T01:28:43.228Z,7.24
2023-02-23T01:29:44.810Z,7.32
2023-02-23T01:30:46.497Z,7.37
2023-02-23T01:31:51.221Z,7.42
2023-02-23T01:32:53.047Z,7.45
2023-02-23T01:33:55.525Z,7.48
2023-02-23T01:34:57.060Z,7.52
2023-02-23T01:36:00.161Z,7.52
2023-02-23T01:37:01.773Z,7.51
2023-02-23T01:38:03.921Z,7.51
2023-02-23T01:39:07.870Z,7.48
2023-02-23T01:40:15.342Z,7.49
2023-02-23T01:41:17.481Z,7.51
2023-02-23T01:42:19.319Z,7.50
2023-02-23T01:43:31.206Z,7.52
2023-02-23T01:44:32.652Z,7.55
2023-02-23T01:45:35.672Z,7.57
2023-02-23T01:46:39.938Z,7.55
2023-02-23T01:47:41.548Z,7.55
2023-02-23T01:48:43.176Z,7.56
2023-02-23T01:49:44.879Z,7.55
2023-02-23T01:50:58.213Z,7.53
2023-02-23T01:52:04.988Z,7.52
2023-02-23T01:53:06.690Z,7.43
2023-02-23T01:54:16.001Z,7.39
2023-02-23T01:55:24.118Z,7.37
2023-02-23T01:56:31.700Z,7.37
2023-02-23T01:57:33.275Z,7.36
2023-02-23T01:58:34.953Z,7.35
2023-02-23T01:59:43.539Z,7.35
2023-02-23T02:00:50.146Z,7.34
2023-02-23T02:01:51.766Z,7.35
2023-02-23T02:02:53.568Z,7.36
2023-02-23T02:03:58.425Z,7.38
2023-02-23T02:05:02.425Z,7.39
2023-02-23T02:06:07.195Z,7.40
2023-02-23T02:07:09.133Z,7.40
2023-02-23T02:08:11.135Z,7.40
2023-02-23T02:09:19.590Z,7.41
2023-02-23T02:10:39.480Z,7.39
2023-02-23T02:11:44.529Z,7.35
2023-02-23T02:12:53.818Z,7.28
2023-02-23T02:13:59.808Z,7.25
2023-02-23T02:15:04.934Z,7.23
2023-02-23T02:16:18.950Z,7.19
2023-02-23T02:18:11.282Z,7.21
2023-02-23T02:19:24.975Z,7.01
2023-02-23T02:20:38.544Z,6.78
2023-02-23T02:22:01.826Z,6.78
2023-02-23T02:23:15.484Z,6.80
2023-02-23T02:24:37.713Z,6.79
2023-02-23T02:25:57.878Z,6.73
2023-02-23T02:27:36.467Z,6.74
2023-02-23T02:28:43.980Z,6.78
2023-02-23T02:30:16.561Z,6.83
2023-02-23T02:31:49.677Z,6.87
2023-02-23T02:33:11.255Z,6.90
2023-02-23T02:34:42.528Z,6.94
2023-02-23T02:36:01.578Z,6.93
2023-02-23T02:37:12.139Z,6.93
2023-02-23T02:38:26.114Z,6.96
2023-02-23T02:39:46.726Z,6.98
2023-02-23T02:41:14.119Z,6.95
2023-02-23T02:42:39.957Z,6.99
2023-02-23T02:43:57.604Z,7.02
2023-02-23T02:45:25.944Z,7.04
2023-02-23T02:46:32.362Z,7.04
2023-02-23T02:47:50.506Z,7.04
2023-02-23T02:49:12.088Z,7.06
2023-02-23T02:50:50.136Z,7.06
2023-02-23T02:52:15.824Z,7.06
2023-02-23T02:53:47.446Z,7.04
2023-02-23T02:54:53.590Z,7.00
2023-02-23T02:56:00.394Z,6.96
2023-02-23T02:57:04.493Z,6.95
2023-02-23T02:58:08.144Z,6.95
2023-02-23T02:59:32.803Z,6.96
2023-02-23T03:01:03.627Z,6.97
2023-02-23T03:02:24.782Z,6.97
2023-02-23T03:03:50.779Z,6.98
2023-02-23T03:05:10.662Z,6.99
2023-02-23T03:06:30.859Z,7.01
2023-02-23T03:08:00.263Z,7.01
2023-02-23T03:09:47.717Z,7.02
2023-02-23T03:11:24.842Z,7.03
2023-02-23T03:12:58.427Z,7.02
2023-02-23T03:14:49.293Z,7.05
2023-02-23T03:16:18.523Z,7.09
2023-02-23T03:17:52.528Z,7.07
2023-02-23T03:19:12.688Z,7.03
2023-02-23T03:20:51.273Z,7.02
2023-02-23T03:22:20.499Z,6.99
2023-02-23T03:23:45.911Z,6.98
2023-02-23T03:25:17.900Z,6.97
2023-02-23T03:26:59.454Z,6.93
2023-02-23T03:28:45.026Z,6.80
2023-02-23T03:30:19.643Z,6.60
2023-02-23T03:31:55.886Z,6.26
2023-02-23T03:33:21.459Z,5.99
2023-02-23T03:34:51.944Z,5.84
2023-02-23T03:36:19.069Z,5.62
2023-02-23T03:37:51.222Z,5.57
2023-02-23T03:39:33.233Z,5.59
2023-02-23T03:40:57.397Z,5.55
2023-02-23T03:42:21.164Z,5.52
2023-02-23T03:43:46.554Z,5.57
2023-02-23T03:45:08.996Z,5.54
2023-02-23T03:46:32.928Z,5.53
2023-02-23T03:47:58.353Z,5.48
2023-02-23T03:49:23.345Z,5.42
2023-02-23T03:50:56.502Z,5.34
2023-02-23T03:52:24.263Z,5.38
2023-02-23T03:53:50.593Z,5.44
2023-02-23T03:55:16.655Z,5.49
2023-02-23T03:56:39.157Z,5.55
2023-02-23T03:58:01.623Z,5.52
2023-02-23T03:59:25.516Z,5.56
2023-02-23T04:00:55.583Z,5.65
2023-02-23T04:02:18.144Z,5.75
2023-02-23T04:03:40.440Z,5.80
2023-02-23T04:05:03.461Z,5.80
2023-02-23T04:06:27.096Z,5.83
2023-02-23T04:07:48.268Z,5.89
2023-02-23T04:09:09.515Z,5.95
2023-02-23T04:10:30.532Z,6.03
2023-02-23T04:12:09.237Z,6.06
2023-02-23T04:13:24.176Z,6.06
2023-02-23T04:14:39.717Z,6.08
2023-02-23T04:15:49.111Z,6.12
2023-02-23T04:16:50.930Z,6.17
2023-02-23T04:17:53.865Z,6.24
2023-02-23T04:18:55.825Z,6.29
2023-02-23T04:19:57.372Z,6.30
2023-02-23T04:20:59.671Z,6.32
2023-02-23T04:22:01.236Z,6.30
2023-02-23T04:23:02.855Z,6.32
2023-02-23T04:24:04.637Z,6.34
2023-02-23T04:25:08.984Z,6.33
2023-02-23T04:26:10.603Z,6.31
2023-02-23T04:27:13.631Z,6.31
2023-02-23T04:28:16.154Z,6.32
2023-02-23T04:29:17.701Z,6.34
2023-02-23T04:30:20.714Z,6.37
2023-02-23T04:31:25.128Z,6.36
2023-02-23T04:32:27.381Z,6.33
2023-02-23T04:33:29.087Z,6.32
2023-02-23T04:34:30.660Z,6.30
2023-02-23T04:35:32.275Z,6.30
2023-02-23T04:36:34.338Z,6.28
2023-02-23T04:37:35.963Z,6.28
2023-02-23T04:38:37.689Z,6.26
2023-02-23T04:39:39.533Z,6.23
2023-02-23T04:40:41.113Z,6.22
2023-02-23T04:41:42.791Z,6.21
2023-02-23T04:42:44.489Z,6.21
2023-02-23T04:43:46.090Z,6.13
2023-02-23T04:44:47.676Z,6.02
2023-02-23T04:45:49.478Z,5.89
2023-02-23T04:46:51.110Z,5.90
2023-02-23T04:47:52.845Z,5.92
2023-02-23T04:48:54.381Z,5.83
2023-02-23T04:49:56.022Z,5.81
2023-02-23T04:50:57.647Z,5.79
2023-02-23T04:51:59.902Z,5.76
2023-02-23T04:53:01.595Z,5.65
2023-02-23T04:54:04.571Z,5.53
2023-02-23T04:55:07.278Z,5.48
2023-02-23T04:56:08.882Z,5.43
2023-02-23T04:57:10.877Z,5.42
2023-02-23T04:58:13.843Z,5.43
2023-02-23T04:59:15.537Z,5.44
2023-02-23T05:00:18.724Z,5.46
2023-02-23T05:01:22.421Z,5.48
2023-02-23T05:02:25.127Z,5.51
2023-02-23T05:03:27.229Z,5.52
2023-02-23T05:04:29.436Z,5.54
2023-02-23T05:05:31.536Z,5.56
2023-02-23T05:06:33.128Z,5.59
2023-02-23T05:07:36.103Z,5.63
2023-02-23T05:08:37.603Z,5.66
2023-02-23T05:09:40.513Z,5.70
2023-02-23T05:10:42.775Z,5.73
2023-02-23T05:11:44.376Z,5.75
2023-02-23T05:12:46.677Z,5.67
2023-02-23T05:13:48.257Z,5.53
2023-02-23T05:14:50.043Z,5.41
2023-02-23T05:15:56.574Z,5.31
2023-02-23T05:16:58.150Z,5.27
2023-02-23T05:17:59.686Z,5.18
2023-02-23T05:19:01.618Z,5.07
2023-02-23T05:20:03.385Z,4.93
2023-02-23T05:21:08.087Z,4.85
2023-02-23T05:22:12.570Z,4.80
2023-02-23T05:23:14.227Z,4.73
2023-02-23T05:24:17.290Z,4.68
2023-02-23T05:25:19.097Z,4.59
2023-02-23T05:26:20.671Z,4.52
2023-02-23T05:27:22.255Z,4.44
2023-02-23T05:28:23.827Z,4.40
2023-02-23T05:29:25.344Z,4.31
2023-02-23T05:30:26.986Z,4.19
2023-02-23T05:31:28.916Z,4.11
2023-02-23T05:32:30.552Z,4.07
2023-02-23T05:33:33.386Z,4.08
2023-02-23T05:34:35.398Z,4.03
2023-02-23T05:35:40.567Z,4.03
2023-02-23T05:36:42.314Z,4.06
2023-02-23T05:37:44.696Z,4.10
2023-02-23T05:38:47.158Z,4.15
2023-02-23T05:39:48.847Z,4.16
2023-02-23T05:40:50.449Z,4.18
2023-02-23T05:41:52.556Z,4.19
2023-02-23T05:42:59.200Z,4.15
2023-02-23T05:44:01.591Z,4.04
2023-02-23T05:45:04.972Z,3.89
2023-02-23T05:46:12.008Z,3.78
2023-02-23T05:47:13.648Z,3.81
2023-02-23T05:48:15.254Z,3.83
2023-02-23T05:49:16.834Z,3.93
2023-02-23T05:50:18.749Z,4.10
2023-02-23T05:51:20.608Z,4.26
2023-02-23T05:52:22.521Z,4.42
2023-02-23T05:53:24.089Z,4.51
2023-02-23T05:54:26.072Z,4.60
2023-02-23T05:55:28.284Z,4.69
2023-02-23T05:56:29.887Z,4.80
2023-02-23T05:57:31.582Z,4.90
2023-02-23T05:58:33.166Z,5.03
2023-02-23T05:59:34.739Z,5.13
2023-02-23T06:00:36.279Z,5.24
2023-02-23T06:01:39.376Z,5.31
2023-02-23T06:02:41.921Z,5.37
2023-02-23T06:03:44.858Z,5.42
2023-02-23T06:04:47.147Z,5.44
2023-02-23T06:05:57.648Z,5.47
2023-02-23T06:06:59.255Z,5.52
2023-02-23T06:08:00.818Z,5.56
2023-02-23T06:09:03.595Z,5.62
2023-02-23T06:10:06.330Z,5.67
2023-02-23T06:11:08.384Z,5.71
2023-02-23T06:12:09.931Z,5.76
2023-02-23T06:13:12.033Z,5.80
2023-02-23T06:14:13.764Z,5.83
2023-02-23T06:15:15.351Z,5.89
2023-02-23T06:16:17.096Z,5.99
2023-02-23T06:17:18.773Z,6.06
2023-02-23T06:18:21.838Z,6.10
2023-02-23T06:19:23.402Z,6.13
2023-02-23T06:20:25.042Z,6.17
2023-02-23T06:21:26.591Z,6.19
2023-02-23T06:22:28.155Z,6.22
2023-02-23T06:23:30.690Z,6.23
2023-02-23T06:24:32.439Z,6.26
2023-02-23T06:25:34.270Z,6.30
2023-02-23T06:26:35.819Z,6.27
2023-02-23T06:27:37.338Z,6.18
2023-02-23T06:28:38.960Z,6.13
2023-02-23T06:29:40.552Z,6.08
2023-02-23T06:30:42.282Z,6.08
2023-02-23T06:31:43.993Z,6.03
2023-02-23T06:32:45.627Z,6.07
2023-02-23T06:33:48.381Z,6.04
2023-02-23T06:34:50.340Z,5.84
2023-02-23T06:35:52.616Z,5.82
2023-02-23T06:36:54.158Z,5.69
2023-02-23T06:37:55.807Z,5.68
2023-02-23T06:38:58.623Z,5.71
2023-02-23T06:40:00.382Z,5.63
2023-02-23T06:41:08.697Z,5.71
2023-02-23T06:42:10.201Z,5.73
2023-02-23T06:43:11.895Z,5.71
2023-02-23T06:44:13.696Z,5.65
2023-02-23T06:45:15.219Z,5.67
2023-02-23T06:46:16.800Z,5.66
2023-02-23T06:47:18.598Z,5.68
2023-02-23T06:48:20.164Z,5.78
2023-02-23T06:49:21.752Z,5.93
2023-02-23T06:50:23.321Z,6.01
2023-02-23T06:51:24.943Z,5.97
2023-02-23T06:52:26.511Z,5.98
2023-02-23T06:53:28.221Z,6.10
2023-02-23T06:54:29.780Z,6.17
2023-02-23T06:55:31.382Z,6.22
2023-02-23T06:56:32.944Z,6.26
2023-02-23T06:57:34.612Z,6.25
2023-02-23T06:58:36.158Z,6.17
2023-02-23T06:59:37.882Z,6.28
2023-02-23T07:00:43.015Z,6.26
2023-02-23T07:01:44.828Z,6.16
2023-02-23T07:02:46.507Z,6.23
2023-02-23T07:03:48.491Z,6.33
2023-02-23T07:04:50.120Z,6.30
2023-02-23T07:05:52.720Z,6.31
2023-02-23T07:06:54.274Z,6.42
2023-02-23T07:07:55.894Z,6.52
2023-02-23T07:08:58.380Z,6.64
2023-02-23T07:09:59.961Z,6.78
2023-02-23T07:11:07.544Z,7.00
2023-02-23T07:12:10.305Z,7.22
2023-02-23T07:13:14.780Z,7.41
2023-02-23T07:14:26.215Z,7.48
2023-02-23T07:15:28.331Z,7.34
2023-02-23T07:16:30.002Z,7.24
2023-02-23T07:17:31.622Z,7.25
2023-02-23T07:18:33.329Z,7.36
2023-02-23T07:19:34.858Z,7.52
2023-02-23T07:20:36.439Z,7.70
2023-02-23T07:21:38.027Z,7.90
2023-02-23T07:22:40.076Z,8.04
2023-02-23T07:23:41.738Z,7.79
2023-02-23T07:24:43.313Z,7.74
2023-02-23T07:25:45.340Z,7.87
2023-02-23T07:26:47.425Z,7.99
2023-02-23T07:27:49.164Z,8.14
2023-02-23T07:28:52.230Z,8.36
2023-02-23T07:29:54.910Z,8.46
2023-02-23T07:30:57.825Z,8.52
2023-02-23T07:31:59.547Z,8.66
2023-02-23T07:33:01.135Z,8.76
2023-02-23T07:34:02.711Z,8.94
2023-02-23T07:35:05.388Z,9.07
2023-02-23T07:36:07.383Z,9.14
2023-02-23T07:37:08.924Z,9.04
2023-02-23T07:38:10.442Z,8.83
2023-02-23T07:39:12.924Z,8.67
2023-02-23T07:40:16.325Z,8.70
2023-02-23T07:41:18.337Z,8.81
2023-02-23T07:42:20.063Z,8.75
2023-02-23T07:43:22.683Z,8.63
2023-02-23T07:44:24.299Z,8.70
2023-02-23T07:45:25.852Z,8.75
2023-02-23T07:46:27.501Z,8.79
2023-02-23T07:47:31.181Z,8.81
2023-02-23T07:48:33.318Z,8.92
2023-02-23T07:49:34.931Z,9.13
2023-02-23T07:50:36.465Z,9.31
2023-02-23T07:51:39.345Z,9.37
2023-02-23T07:52:43.216Z,9.41
2023-02-23T07:53:45.169Z,9.45
2023-02-23T07:54:46.736Z,9.56
2023-02-23T07:55:56.462Z,9.56
2023-02-23T07:56:58.685Z,9.50
2023-02-23T07:58:00.230Z,9.45
2023-02-23T07:59:02.051Z,9.30
2023-02-23T08:00:05.901Z,9.38
2023-02-23T08:01:08.812Z,9.57
2023-02-23T08:02:13.148Z,9.78
2023-02-23T08:03:14.713Z,10.05
2023-02-23T08:04:16.283Z,10.24
2023-02-23T08:05:17.880Z,10.33
2023-02-23T08:06:20.024Z,10.42
2023-02-23T08:07:22.473Z,10.52
2023-02-23T08:08:24.321Z,10.71
2023-02-23T08:09:25.860Z,10.81
2023-02-23T08:10:27.468Z,10.88
2023-02-23T08:11:29.165Z,10.58
2023-02-23T08:12:33.721Z,10.59
2023-02-23T08:13:37.218Z,10.52
2023-02-23T08:14:38.781Z,10.31
2023-02-23T08:15:41.038Z,10.32
2023-02-23T08:16:42.805Z,10.53
2023-02-23T08:17:44.376Z,10.68
2023-02-23T08:18:46.274Z,10.60
2023-02-23T08:19:48.010Z,10.66
2023-02-23T08:20:49.749Z,10.85
2023-02-23T08:21:51.374Z,11.08
2023-02-23T08:22:57.047Z,11.19
2023-02-23T08:23:58.907Z,11.29
2023-02-23T08:25:00.487Z,11.36
2023-02-23T08:26:02.555Z,11.38
2023-02-23T08:27:04.250Z,11.44
2023-02-23T08:28:06.971Z,11.64
2023-02-23T08:29:09.082Z,11.69
2023-02-23T08:30:14.141Z,11.42
2023-02-23T08:31:18.863Z,11.48
2023-02-23T08:32:21.320Z,11.15
2023-02-23T08:33:23.005Z,11.01
2023-02-23T08:34:24.871Z,11.10
2023-02-23T08:35:26.526Z,11.35
2023-02-23T08:36:28.170Z,11.61
2023-02-23T08:37:30.083Z,11.80
2023-02-23T08:38:31.721Z,11.95
2023-02-23T08:39:33.771Z,12.05
2023-02-23T08:40:35.374Z,12.15
2023-02-23T08:41:37.032Z,12.26
2023-02-23T08:42:38.606Z,12.32
2023-02-23T08:43:40.172Z,12.44
2023-02-23T08:44:41.698Z,12.52
2023-02-23T08:45:43.259Z,12.48
2023-02-23T08:46:45.881Z,12.49
2023-02-23T08:47:47.621Z,12.46
2023-02-23T08:48:49.221Z,12.54
2023-02-23T08:49:51.176Z,12.59
2023-02-23T08:50:57.462Z,12.69
2023-02-23T08:51:59.036Z,12.81
2023-02-23T08:53:00.615Z,12.89
2023-02-23T08:54:02.264Z,12.90
2023-02-23T08:55:04.649Z,12.47
2023-02-23T08:56:07.655Z,12.25
2023-02-23T08:57:11.621Z,12.36
2023-02-23T08:58:14.054Z,12.39
2023-02-23T08:59:15.717Z,12.25
2023-02-23T09:00:17.768Z,12.38
2023-02-23T09:01:22.187Z,12.46
2023-02-23T09:02:24.833Z,12.53
2023-02-23T09:03:30.200Z,12.38
2023-02-23T09:04:35.198Z,12.29
2023-02-23T09:05:38.412Z,12.18
2023-02-23T09:06:41.009Z,12.00
2023-02-23T09:07:46.772Z,12.07
2023-02-23T09:08:48.351Z,12.26
2023-02-23T09:09:56.818Z,12.42
2023-02-23T09:10:58.401Z,12.47
2023-02-23T09:12:00.753Z,12.58
2023-02-23T09:13:03.018Z,12.66
2023-02-23T09:14:04.638Z,12.69
2023-02-23T09:15:06.959Z,12.73
2023-02-23T09:16:08.875Z,12.73
2023-02-23T09:17:10.547Z,12.88
2023-02-23T09:18:17.429Z,13.06
2023-02-23T09:19:20.150Z,13.07
2023-02-23T09:20:26.943Z,12.95
2023-02-23T09:21:29.990Z,12.97
2023-02-23T09:22:32.030Z,12.98
2023-02-23T09:23:35.160Z,13.03
2023-02-23T09:24:39.328Z,13.08
2023-02-23T09:25:45.730Z,13.14
2023-02-23T09:26:48.111Z,13.12
2023-02-23T09:27:54.209Z,13.22
2023-02-23T09:28:57.982Z,13.18
2023-02-23T09:29:59.579Z,13.17
2023-02-23T09:31:13.144Z,13.10
2023-02-23T09:32:14.913Z,13.01
2023-02-23T09:33:17.374Z,13.01
2023-02-23T09:34:19.923Z,13.12
2023-02-23T09:35:24.535Z,13.33
2023-02-23T09:36:26.383Z,13.54
2023-02-23T09:37:27.956Z,13.72
2023-02-23T09:38:30.380Z,13.76
2023-02-23T09:39:38.046Z,13.89
2023-02-23T09:40:47.619Z,14.07
2023-02-23T09:42:30.166Z,14.18
2023-02-23T09:43:56.182Z,14.11
2023-02-23T09:45:28.111Z,14.29
2023-02-23T09:46:54.953Z,14.33
2023-02-23T09:48:16.702Z,14.25
2023-02-23T09:49:22.176Z,14.20
2023-02-23T09:50:28.214Z,14.03
2023-02-23T09:51:37.355Z,13.91
2023-02-23T09:52:42.614Z,13.64
2023-02-23T09:53:50.017Z,13.60
2023-02-23T09:54:52.292Z,13.56
2023-02-23T09:55:54.850Z,13.65
2023-02-23T09:56:58.396Z,13.75
2023-02-23T09:58:21.098Z,13.80
2023-02-23T09:59:23.230Z,13.86
2023-02-23T10:00:29.822Z,13.97
2023-02-23T10:01:52.378Z,14.07
2023-02-23T10:03:40.722Z,14.30
2023-02-23T10:04:47.894Z,14.47
2023-02-23T10:05:59.410Z,14.59
2023-02-23T10:07:19.726Z,14.64
2023-02-23T10:08:31.837Z,14.76
2023-02-23T10:09:33.303Z,14.73
2023-02-23T10:10:59.820Z,14.80
2023-02-23T10:12:19.610Z,14.83
2023-02-23T10:13:45.808Z,14.97
2023-02-23T10:14:58.534Z,15.17
2023-02-23T10:16:12.501Z,15.27
2023-02-23T10:17:34.912Z,15.35
2023-02-23T10:18:54.914Z,15.44
2023-02-23T10:20:04.217Z,15.38
2023-02-23T10:21:25.858Z,15.19
2023-02-23T10:22:28.877Z,15.18
2023-02-23T10:23:42.845Z,15.32
2023-02-23T10:25:00.673Z,15.48
2023-02-23T10:26:03.743Z,15.49
2023-02-23T10:27:23.677Z,15.53
2023-02-23T10:28:27.586Z,15.39
2023-02-23T10:29:41.287Z,15.41
2023-02-23T10:30:43.796Z,15.48
2023-02-23T10:31:50.981Z,15.48
2023-02-23T10:33:16.579Z,15.48
2023-02-23T10:34:18.464Z,15.20
2023-02-23T10:35:21.873Z,15.09
2023-02-23T10:36:38.273Z,14.92
2023-02-23T10:37:39.971Z,15.01
2023-02-23T10:38:41.592Z,15.19
2023-02-23T10:39:43.207Z,15.20
2023-02-23T10:40:55.497Z,15.23
2023-02-23T10:42:06.540Z,15.34
2023-02-23T10:43:12.824Z,15.39
2023-02-23T10:44:24.377Z,15.43
2023-02-23T10:45:28.555Z,15.47
2023-02-23T10:46:38.584Z,15.51
2023-02-23T10:47:41.496Z,15.45
2023-02-23T10:48:44.196Z,15.43
2023-02-23T10:49:49.125Z,15.36
2023-02-23T10:50:54.052Z,15.37
2023-02-23T10:51:58.329Z,15.44
2023-02-23T10:53:27.692Z,15.44
2023-02-23T10:54:45.676Z,15.39
2023-02-23T10:55:59.676Z,15.39
2023-02-23T10:57:01.834Z,15.37
2023-02-23T10:58:05.928Z,15.47
2023-02-23T10:59:20.570Z,15.53
2023-02-23T11:00:28.747Z,15.57
2023-02-23T11:02:01.045Z,15.74
2023-02-23T11:03:24.567Z,15.74
2023-02-23T11:04:29.376Z,15.76
2023-02-23T11:05:32.969Z,15.73
2023-02-23T11:06:43.034Z,15.65
2023-02-23T11:07:45.230Z,15.67
2023-02-23T11:08:46.805Z,15.74
2023-02-23T11:09:49.577Z,15.61
2023-02-23T11:10:58.915Z,15.68
2023-02-23T11:12:02.728Z,15.77
2023-02-23T11:13:04.279Z,15.82
2023-02-23T11:14:16.972Z,15.94
2023-02-23T11:15:32.032Z,16.03
2023-02-23T11:16:41.236Z,16.05
2023-02-23T11:17:43.147Z,16.09
2023-02-23T11:18:50.786Z,16.06
2023-02-23T11:19:59.065Z,15.97
2023-02-23T11:21:00.780Z,16.01
2023-02-23T11:22:03.180Z,16.07
2023-02-23T11:23:16.681Z,16.15
2023-02-23T11:24:25.074Z,16.16
2023-02-23T11:25:32.016Z,16.28
2023-02-23T11:26:42.383Z,16.34
2023-02-23T11:27:51.548Z,16.40
2023-02-23T11:28:59.502Z,16.37
2023-02-23T11:30:06.353Z,16.36
2023-02-23T11:31:18.941Z,16.37
2023-02-23T11:32:32.697Z,16.38
2023-02-23T11:33:36.110Z,16.40
2023-02-23T11:34:40.901Z,16.41
2023-02-23T11:35:42.538Z,16.34
2023-02-23T11:36:44.072Z,16.25
2023-02-23T11:37:46.093Z,16.21
2023-02-23T11:38:47.903Z,16.16
2023-02-23T11:39:58.342Z,16.12
2023-02-23T11:41:07.242Z,16.13
2023-02-23T11:42:20.479Z,16.05
2023-02-23T11:43:22.104Z,16.01
2023-02-23T11:44:24.097Z,16.00
2023-02-23T11:45:32.214Z,16.06
2023-02-23T11:46:37.879Z,16.13
2023-02-23T11:47:41.419Z,16.17
2023-02-23T11:48:55.108Z,16.19
2023-02-23T11:49:56.845Z,16.24
2023-02-23T11:51:00.225Z,16.31
2023-02-23T11:52:03.067Z,16.38
2023-02-23T11:53:17.849Z,16.46
2023-02-23T11:54:28.631Z,16.49
2023-02-23T11:55:31.949Z,16.49
2023-02-23T11:56:35.404Z,16.43
2023-02-23T11:57:37.199Z,16.52
2023-02-23T11:58:49.744Z,16.57
2023-02-23T11:59:52.231Z,16.61
2023-02-23T12:01:03.746Z,16.62
2023-02-23T12:02:19.161Z,16.73
2023-02-23T12:03:23.218Z,16.77
2023-02-23T12:04:33.436Z,16.86
2023-02-23T12:05:35.513Z,16.89
2023-02-23T12:06:41.844Z,16.97
2023-02-23T12:07:59.853Z,16.97
2023-02-23T12:09:27.974Z,17.01
2023-02-23T12:10:42.997Z,17.00
2023-02-23T12:11:51.270Z,17.09
2023-02-23T12:13:16.888Z,17.13
2023-02-23T12:14:21.332Z,17.19
2023-02-23T12:15:45.718Z,17.22
2023-02-23T12:16:53.496Z,17.28
2023-02-23T12:18:00.595Z,17.36
2023-02-23T12:19:20.642Z,17.37
2023-02-23T12:20:27.230Z,17.30
2023-02-23T12:21:45.500Z,17.23
2023-02-23T12:22:54.241Z,17.17
2023-02-23T12:24:05.484Z,17.14
2023-02-23T12:25:34.028Z,17.17
2023-02-23T12:26:46.858Z,17.19
2023-02-23T12:28:18.825Z,17.23
2023-02-23T12:29:30.414Z,17.29
2023-02-23T12:30:54.810Z,17.38
2023-02-23T12:32:05.774Z,17.40
2023-02-23T12:33:30.131Z,17.41
2023-02-23T12:34:44.444Z,17.38
2023-02-23T12:35:49.447Z,17.37
2023-02-23T12:36:57.913Z,17.39
2023-02-23T12:38:12.669Z,17.38
2023-02-23T12:39:27.962Z,17.33
2023-02-23T12:40:34.411Z,17.42
2023-02-23T12:41:51.538Z,17.48
2023-02-23T12:43:14.813Z,17.44
2023-02-23T12:44:22.227Z,17.39
2023-02-23T12:45:37.198Z,17.38
2023-02-23T12:46:47.571Z,17.51
2023-02-23T12:48:03.068Z,17.58
2023-02-23T12:49:05.279Z,17.69
2023-02-23T12:50:45.841Z,17.77
2023-02-23T12:51:55.685Z,17.84
2023-02-23T12:53:08.181Z,17.92
2023-02-23T12:54:12.708Z,17.90
2023-02-23T12:55:14.614Z,17.97
2023-02-23T12:56:47.131Z,17.96
2023-02-23T12:58:07.870Z,18.03
2023-02-23T12:59:21.965Z,18.09
2023-02-23T13:00:50.426Z,18.10
2023-02-23T13:02:02.929Z,18.07
2023-02-23T13:03:13.795Z,18.05
2023-02-23T13:04:42.871Z,18.17
2023-02-23T13:06:04.120Z,18.12
2023-02-23T13:07:19.713Z,18.00
2023-02-23T13:08:34.244Z,18.07
2023-02-23T13:09:41.487Z,18.11
2023-02-23T13:11:07.511Z,18.18
2023-02-23T13:12:14.865Z,18.18
2023-02-23T13:13:45.754Z,18.16
2023-02-23T13:15:00.517Z,18.20
2023-02-23T13:16:17.189Z,18.25
2023-02-23T13:17:37.269Z,18.25
2023-02-23T13:18:45.354Z,18.18
2023-02-23T13:19:56.275Z,18.18
2023-02-23T13:21:12.551Z,18.18
2023-02-23T13:22:26.255Z,18.25
2023-02-23T13:23:49.859Z,18.29
2023-02-23T13:24:55.308Z,18.37
2023-02-23T13:26:10.185Z,18.39
2023-02-23T13:27:23.869Z,18.39
2023-02-23T13:28:40.930Z,18.37
2023-02-23T13:29:45.036Z,18.40
2023-02-23T13:30:47.760Z,18.36
2023-02-23T13:31:50.164Z,18.35
2023-02-23T13:32:52.614Z,18.31
2023-02-23T13:33:57.773Z,18.34
2023-02-23T13:35:01.683Z,18.32
2023-02-23T13:36:04.940Z,18.34
2023-02-23T13:37:08.758Z,18.25
2023-02-23T13:38:16.107Z,18.32
2023-02-23T13:39:36.541Z,18.37
2023-02-23T13:40:52.148Z,18.39
2023-02-23T13:42:15.037Z,18.39
2023-02-23T13:43:34.058Z,18.37
2023-02-23T13:45:14.434Z,18.34
2023-02-23T13:46:46.529Z,18.33
2023-02-23T13:47:55.713Z,18.41
2023-02-23T13:49:15.417Z,18.38
2023-02-23T13:50:28.752Z,18.35
2023-02-23T13:51:49.007Z,18.28
2023-02-23T13:52:58.374Z,18.23
2023-02-23T13:54:29.620Z,18.19
2023-02-23T13:55:49.798Z,18.12
2023-02-23T13:56:57.374Z,18.15
2023-02-23T13:58:16.800Z,18.07
2023-02-23T13:59:21.803Z,17.98
2023-02-23T14:00:24.333Z,17.97
2023-02-23T14:01:40.675Z,17.91
2023-02-23T14:02:42.508Z,17.96
2023-02-23T14:04:12.512Z,18.00
2023-02-23T14:05:24.918Z,17.94
2023-02-23T14:06:29.616Z,17.99
2023-02-23T14:07:32.932Z,17.99
2023-02-23T14:08:37.737Z,17.95
2023-02-23T14:10:04.969Z,17.84
2023-02-23T14:11:06.787Z,17.89
2023-02-23T14:12:12.037Z,17.87
2023-02-23T14:13:13.554Z,17.92
2023-02-23T14:14:35.107Z,17.79
2023-02-23T14:15:37.839Z,17.74
2023-02-23T14:16:40.063Z,17.69
2023-02-23T14:17:42.073Z,17.61
2023-02-23T14:19:31.840Z,17.67
2023-02-23T14:20:39.134Z,17.63
2023-02-23T14:22:01.175Z,17.59
2023-02-23T14:23:21.007Z,17.55
2023-02-23T14:24:24.773Z,17.57
2023-02-23T14:25:35.237Z,17.54
2023-02-23T14:27:27.668Z,17.58
2023-02-23T14:28:39.366Z,17.52
2023-02-23T14:29:43.828Z,17.46
2023-02-23T14:30:51.282Z,17.46
2023-02-23T14:32:12.801Z,17.45
2023-02-23T14:33:45.234Z,17.44
2023-02-23T14:34:47.207Z,17.42
2023-02-23T14:35:49.355Z,17.44
2023-02-23T14:36:56.150Z,17.33
2023-02-23T14:38:05.242Z,17.28
2023-02-23T14:39:18.190Z,17.31
2023-02-23T14:40:29.658Z,17.22
2023-02-23T14:41:38.662Z,17.20
2023-02-23T14:42:41.225Z,17.16
2023-02-23T14:43:45.430Z,17.19
2023-02-23T14:44:51.410Z,17.19
2023-02-23T14:45:55.084Z,17.14
2023-02-23T14:47:08.425Z,17.06
2023-02-23T14:48:15.770Z,17.10
2023-02-23T14:49:23.257Z,17.11
2023-02-23T14:50:31.430Z,17.11
2023-02-23T14:51:52.505Z,17.10
2023-02-23T14:52:56.779Z,17.12
2023-02-23T14:53:59.931Z,17.07
2023-02-23T14:55:21.128Z,17.14